This is the latest recevied weather packets stored in our database for station/object LU8AQL-WX. If no packets are shown the sender has not sent any weather packets the latest 10 day(s).
| Time | Temp. | Humidity | Pressure | Rain* | Wind** | Luminosity | Snow |
|---|---|---|---|---|---|---|---|
| 1787478751 | 5.56° C | 72% | 1026 hPa | 0 mm | - | - | - |
| 1787478150 | 4.44° C | 74% | 1026 hPa | 0 mm | - | - | - |
| 1787477549 | 5° C | 73% | 1026 hPa | 0 mm | - | - | - |
| 1787476949 | 6.11° C | 71% | 1025 hPa | 0 mm | - | - | - |
| 1787476348 | 6.11° C | 70% | 1025 hPa | 0 mm | - | - | - |
| 1787475747 | 5.56° C | 71% | 1025 hPa | 0 mm | - | - | - |
| 1787475146 | 5.56° C | 70% | 1025 hPa | 0 mm | - | - | - |
| 1787474546 | 5.56° C | 70% | 1025 hPa | 0 mm | - | - | - |
| 1787473945 | 6.11° C | 69% | 1024 hPa | 0 mm | - | - | - |
| 1787473343 | 6.11° C | 68% | 1024 hPa | 0 mm | - | - | - |
| 1787472743 | 5.56° C | 68% | 1024 hPa | 0 mm | - | - | - |
| 1787472142 | 5° C | 68% | 1024 hPa | 0 mm | - | - | - |
| 1787471541 | 6.67° C | 63% | 1024 hPa | 0 mm | - | - | - |
| 1787470940 | 6.67° C | 63% | 1024 hPa | 0 mm | - | - | - |
| 1787470339 | 6.67° C | 63% | 1024 hPa | 0 mm | - | - | - |
| 1787469738 | 6.67° C | 62% | 1023 hPa | 0 mm | - | - | - |
| 1787469137 | 6.67° C | 62% | 1024 hPa | 0 mm | - | - | - |
| 1787468536 | 7.22° C | 61% | 1024 hPa | 0 mm | - | - | - |
| 1787467935 | 7.22° C | 60% | 1024 hPa | 0 mm | - | - | - |
| 1787467334 | 7.22° C | 60% | 1024 hPa | 0 mm | - | - | - |
| 1787466733 | 7.22° C | 60% | 1024 hPa | 0 mm | - | - | - |
| 1787466132 | 6.67° C | 62% | 1024 hPa | 0 mm | - | - | - |
| 1787465531 | 5.56° C | 66% | 1024 hPa | 0 mm | - | - | - |
| 1787464931 | 5° C | 69% | 1024 hPa | 0 mm | - | - | - |
| 1787464329 | 5.56° C | 67% | 1024 hPa | 0 mm | - | - | - |
* Rain latest hour (hover to see other rain measurements)
** Current wind speed in m/s (hover to see current wind gust speed)